createdAt,value
2022-11-27T00:01:35.629Z,33.80
2022-11-27T00:04:03.282Z,30.02
2022-11-27T00:06:31.809Z,31.27
2022-11-27T00:09:01.719Z,33.60
2022-11-27T00:11:30.914Z,29.08
2022-11-27T00:13:58.546Z,29.60
2022-11-27T00:16:27.392Z,30.40
2022-11-27T00:18:54.641Z,34.93
2022-11-27T00:21:26.083Z,30.52
2022-11-27T00:23:55.792Z,32.60
2022-11-27T00:28:51.126Z,26.83
2022-11-27T00:31:22.506Z,25.63
2022-11-27T00:33:49.673Z,25.27
2022-11-27T00:36:16.927Z,25.48
2022-11-27T00:38:44.106Z,29.38
2022-11-27T00:41:18.478Z,28.02
2022-11-27T00:43:46.019Z,30.17
2022-11-27T00:46:28.405Z,30.20
2022-11-27T00:49:01.876Z,29.58
2022-11-27T00:51:29.705Z,32.38
2022-11-27T00:53:57.888Z,31.13
2022-11-27T00:56:31.768Z,29.70
2022-11-27T00:58:59.603Z,26.65
2022-11-27T01:01:40.894Z,28.75
2022-11-27T01:04:13.228Z,28.77
2022-11-27T01:06:41.094Z,28.08
2022-11-27T01:09:09.382Z,29.35
2022-11-27T01:11:37.493Z,27.75
2022-11-27T01:14:10.410Z,27.05
2022-11-27T01:16:42.063Z,33.47
2022-11-27T01:19:12.613Z,34.10
2022-11-27T01:21:40.992Z,26.98
2022-11-27T01:24:09.921Z,24.48
2022-11-27T01:26:37.189Z,25.77
2022-11-27T01:29:04.550Z,25.77
2022-11-27T01:31:33.935Z,28.13
2022-11-27T01:34:08.117Z,27.00
2022-11-27T01:36:35.961Z,26.40
2022-11-27T01:39:04.467Z,25.38
2022-11-27T01:41:35.718Z,27.25
2022-11-27T01:44:23.263Z,24.58
2022-11-27T01:47:11.364Z,27.60
2022-11-27T01:49:48.065Z,25.50
2022-11-27T01:52:33.587Z,25.02
2022-11-27T01:55:29.163Z,27.88
2022-11-27T01:58:09.059Z,29.63
2022-11-27T02:00:38.109Z,28.33
2022-11-27T02:03:05.831Z,23.30
2022-11-27T02:05:33.070Z,23.90
2022-11-27T02:08:06.971Z,25.20
2022-11-27T02:10:55.554Z,27.73
2022-11-27T02:13:47.727Z,27.67
2022-11-27T02:16:39.423Z,35.17
2022-11-27T02:19:12.371Z,38.05
2022-11-27T02:21:55.902Z,36.13
2022-11-27T02:24:55.990Z,30.75
2022-11-27T02:27:47.687Z,31.30
2022-11-27T02:30:15.328Z,27.67
2022-11-27T02:32:48.994Z,28.88
2022-11-27T02:35:27.589Z,29.40
2022-11-27T02:38:25.125Z,28.58
2022-11-27T02:41:16.919Z,24.92
2022-11-27T02:43:49.670Z,26.85
2022-11-27T02:46:19.340Z,27.27
2022-11-27T02:51:36.738Z,31.70
2022-11-27T02:54:10.386Z,28.30
2022-11-27T02:56:40.361Z,29.48
2022-11-27T02:59:12.046Z,26.08
2022-11-27T03:01:50.168Z,24.60
2022-11-27T03:04:28.265Z,23.60
2022-11-27T03:07:04.339Z,23.85
2022-11-27T03:09:41.368Z,23.17
2022-11-27T03:12:11.209Z,21.88
2022-11-27T03:14:41.163Z,24.10
2022-11-27T03:17:23.765Z,23.02
2022-11-27T03:20:26.758Z,23.25
2022-11-27T03:22:55.198Z,21.38
2022-11-27T03:25:23.477Z,22.00
2022-11-27T03:27:58.520Z,22.33
2022-11-27T03:30:25.752Z,23.65
2022-11-27T03:32:53.017Z,24.10
2022-11-27T03:35:25.087Z,23.98
2022-11-27T03:37:53.454Z,26.77
2022-11-27T03:40:27.282Z,28.98
2022-11-27T03:43:13.990Z,26.98
2022-11-27T03:46:25.543Z,25.23
2022-11-27T03:49:14.426Z,24.20
2022-11-27T03:52:19.326Z,20.63
2022-11-27T03:55:20.482Z,20.25
2022-11-27T03:57:53.130Z,19.35
2022-11-27T04:00:20.875Z,17.85
2022-11-27T04:02:53.022Z,19.05
2022-11-27T04:05:20.925Z,21.15
2022-11-27T04:07:48.440Z,17.77
2022-11-27T04:10:15.866Z,19.25
2022-11-27T04:12:43.124Z,22.23
2022-11-27T04:15:11.176Z,22.83
2022-11-27T04:17:38.688Z,22.52
2022-11-27T04:20:07.434Z,20.20
2022-11-27T04:22:34.882Z,19.20
2022-11-27T04:25:02.139Z,19.70
2022-11-27T04:27:29.381Z,22.17
2022-11-27T04:29:56.557Z,21.27
2022-11-27T04:32:24.025Z,19.05
2022-11-27T04:34:51.232Z,24.90
2022-11-27T04:37:18.361Z,31.73
2022-11-27T04:39:45.498Z,27.75
2022-11-27T04:42:12.558Z,26.88
2022-11-27T04:44:39.784Z,21.10
2022-11-27T04:47:07.237Z,21.23
2022-11-27T04:49:34.566Z,24.85
2022-11-27T04:52:02.049Z,25.38
2022-11-27T04:54:29.170Z,24.98
2022-11-27T04:56:56.534Z,22.20
2022-11-27T04:59:23.677Z,24.88
2022-11-27T05:01:50.870Z,25.80
2022-11-27T05:04:18.051Z,29.35
2022-11-27T05:06:45.264Z,29.58
2022-11-27T05:09:13.017Z,32.83
2022-11-27T05:11:40.251Z,32.13
2022-11-27T05:14:17.557Z,31.63
2022-11-27T05:16:50.762Z,31.55
2022-11-27T05:19:20.975Z,30.17
2022-11-27T05:21:49.087Z,32.30
2022-11-27T05:24:18.185Z,34.80
2022-11-27T05:26:45.717Z,32.03
2022-11-27T05:29:14.092Z,34.78
2022-11-27T05:31:42.390Z,41.28
2022-11-27T05:34:10.318Z,37.33
2022-11-27T05:36:38.079Z,34.47
2022-11-27T05:39:07.945Z,27.00
2022-11-27T05:44:03.838Z,29.50
2022-11-27T05:46:31.244Z,31.52
2022-11-27T05:48:58.384Z,32.03
2022-11-27T05:51:25.544Z,28.70
2022-11-27T05:53:52.689Z,31.27
2022-11-27T05:56:19.897Z,28.85
2022-11-27T05:58:48.641Z,26.27
2022-11-27T06:01:17.906Z,26.77
2022-11-27T06:03:45.355Z,25.10
2022-11-27T06:06:16.490Z,31.00
2022-11-27T06:08:44.138Z,36.97
2022-11-27T06:11:16.194Z,35.85
2022-11-27T06:13:44.692Z,32.45
2022-11-27T06:16:22.189Z,29.75
2022-11-27T06:18:54.847Z,30.35
2022-11-27T06:21:23.629Z,33.28
2022-11-27T06:23:55.107Z,30.92
2022-11-27T06:26:31.564Z,42.17
2022-11-27T06:29:00.616Z,38.78
2022-11-27T06:31:31.121Z,38.03
2022-11-27T06:33:59.100Z,39.17
2022-11-27T06:36:34.318Z,36.45
2022-11-27T06:39:04.136Z,32.88
2022-11-27T06:44:00.741Z,31.25
2022-11-27T06:46:29.451Z,32.72
2022-11-27T06:48:58.056Z,30.73
2022-11-27T06:51:29.562Z,34.92
2022-11-27T06:53:58.125Z,29.08
2022-11-27T06:56:28.510Z,35.90
2022-11-27T06:58:58.771Z,31.33
2022-11-27T07:01:28.408Z,27.65
2022-11-27T07:06:25.990Z,29.83
2022-11-27T07:08:54.727Z,32.17
2022-11-27T07:11:26.278Z,36.00
2022-11-27T07:13:57.037Z,29.75
2022-11-27T07:16:25.615Z,25.80
2022-11-27T07:18:57.453Z,24.90
2022-11-27T07:21:25.238Z,33.50
2022-11-27T07:23:52.427Z,28.85
2022-11-27T07:26:27.075Z,29.40
2022-11-27T07:28:54.954Z,34.15
2022-11-27T07:31:28.337Z,43.35
2022-11-27T07:33:56.639Z,30.00
2022-11-27T07:36:28.182Z,26.58
2022-11-27T07:38:55.868Z,30.23
2022-11-27T07:41:23.340Z,36.55
2022-11-27T07:43:50.595Z,33.72
2022-11-27T07:46:22.348Z,35.35
2022-11-27T07:48:49.719Z,35.63
2022-11-27T07:51:20.817Z,32.08
2022-11-27T07:53:51.282Z,25.27
2022-11-27T07:56:19.274Z,28.25
2022-11-27T07:58:47.282Z,33.42
2022-11-27T08:01:17.306Z,36.92
2022-11-27T08:03:45.082Z,38.88
2022-11-27T08:06:30.527Z,57.47
2022-11-27T08:08:57.732Z,53.88
2022-11-27T08:11:32.550Z,45.35
2022-11-27T08:14:06.136Z,38.20
2022-11-27T08:16:35.344Z,39.97
2022-11-27T08:19:03.455Z,40.78
2022-11-27T08:21:30.765Z,32.53
2022-11-27T08:23:58.240Z,29.05
2022-11-27T08:26:29.073Z,26.95
2022-11-27T08:28:57.470Z,30.75
2022-11-27T08:31:25.281Z,30.75
2022-11-27T08:33:52.794Z,31.95
2022-11-27T08:36:20.208Z,45.42
2022-11-27T08:38:47.547Z,42.58
2022-11-27T08:41:14.868Z,38.60
2022-11-27T08:43:42.038Z,36.72
2022-11-27T08:46:10.191Z,31.98
2022-11-27T08:48:37.508Z,27.25
2022-11-27T08:51:11.013Z,19.77
2022-11-27T08:53:38.936Z,21.70
2022-11-27T08:56:18.291Z,22.23
2022-11-27T08:58:46.470Z,21.25
2022-11-27T09:01:19.994Z,21.30
2022-11-27T09:03:47.902Z,24.88
2022-11-27T09:06:19.307Z,25.73
2022-11-27T09:08:46.764Z,25.67
2022-11-27T09:11:16.174Z,27.98
2022-11-27T09:13:44.535Z,27.35
2022-11-27T09:16:18.884Z,27.70
2022-11-27T09:18:48.959Z,33.03
2022-11-27T09:21:19.867Z,29.60
2022-11-27T09:23:47.134Z,28.73
2022-11-27T09:26:16.576Z,29.58
2022-11-27T09:28:44.590Z,33.50
2022-11-27T09:31:15.269Z,36.45
2022-11-27T09:33:43.707Z,35.38
2022-11-27T09:36:22.079Z,34.53
2022-11-27T09:38:49.945Z,41.20
2022-11-27T09:41:44.623Z,38.05
2022-11-27T09:44:28.868Z,38.78
2022-11-27T09:47:04.524Z,39.90
2022-11-27T09:49:46.278Z,39.33
2022-11-27T09:52:41.082Z,40.88
2022-11-27T09:55:22.600Z,40.25
2022-11-27T09:58:18.103Z,29.80
2022-11-27T10:00:47.561Z,32.78
2022-11-27T10:03:20.920Z,34.67
2022-11-27T10:06:05.490Z,37.92
2022-11-27T10:09:12.113Z,40.65
2022-11-27T10:11:57.530Z,45.20
2022-11-27T10:15:15.462Z,43.65
2022-11-27T10:18:27.826Z,49.65
2022-11-27T10:21:31.059Z,44.47
2022-11-27T10:24:24.250Z,44.88
2022-11-27T10:26:56.529Z,40.83
2022-11-27T10:29:55.171Z,45.65
2022-11-27T10:32:55.247Z,32.27
2022-11-27T10:35:28.510Z,36.88
2022-11-27T10:38:24.591Z,37.38
2022-11-27T10:41:48.926Z,39.28
2022-11-27T10:44:54.150Z,37.03
2022-11-27T10:47:23.624Z,27.02
2022-11-27T10:52:19.697Z,26.48
2022-11-27T10:55:03.100Z,28.25
2022-11-27T10:58:07.266Z,25.13
2022-11-27T11:00:34.456Z,26.17
2022-11-27T11:03:06.691Z,22.90
2022-11-27T11:06:11.578Z,25.88
2022-11-27T11:08:24.709Z,23.40
2022-11-27T11:11:01.283Z,21.05
2022-11-27T11:13:45.456Z,25.30
2022-11-27T11:16:24.615Z,24.35
2022-11-27T11:18:55.164Z,23.88
2022-11-27T11:21:38.125Z,20.80
2022-11-27T11:24:10.109Z,23.40
2022-11-27T11:26:49.675Z,26.08
2022-11-27T11:32:36.661Z,24.35
2022-11-27T11:35:25.672Z,24.85
2022-11-27T11:37:53.313Z,23.50
2022-11-27T11:40:29.613Z,19.95
2022-11-27T11:43:19.176Z,21.65
2022-11-27T11:45:48.271Z,18.92
2022-11-27T11:48:28.134Z,20.65
2022-11-27T11:51:19.145Z,18.85
2022-11-27T11:54:23.193Z,21.20
2022-11-27T11:56:52.025Z,22.30
2022-11-27T11:59:54.297Z,21.70
2022-11-27T12:02:48.290Z,21.55
2022-11-27T12:05:47.927Z,22.45
2022-11-27T12:11:28.331Z,19.13
2022-11-27T12:14:04.711Z,22.63
2022-11-27T12:17:04.761Z,20.70
2022-11-27T12:20:08.767Z,19.23
2022-11-27T12:23:06.722Z,18.30
2022-11-27T12:25:55.893Z,20.23
2022-11-27T12:28:48.928Z,17.35
2022-11-27T12:31:44.749Z,17.15
2022-11-27T12:34:48.106Z,17.45
2022-11-27T12:37:33.707Z,22.50
2022-11-27T12:40:42.147Z,20.83
2022-11-27T12:43:28.348Z,36.85
2022-11-27T12:46:09.449Z,23.48
2022-11-27T12:49:04.897Z,19.88
2022-11-27T12:51:40.708Z,18.75
2022-11-27T12:54:54.740Z,17.63
2022-11-27T12:57:51.084Z,16.67
2022-11-27T13:00:22.615Z,17.40
2022-11-27T13:03:21.302Z,17.63
2022-11-27T13:06:08.104Z,17.47
2022-11-27T13:09:00.955Z,15.27
2022-11-27T13:11:40.054Z,9.98
2022-11-27T13:14:19.837Z,7.82
2022-11-27T13:17:15.128Z,7.25
2022-11-27T13:19:49.557Z,8.73
2022-11-27T13:22:27.967Z,6.95
2022-11-27T13:24:59.981Z,5.20
2022-11-27T13:27:31.029Z,6.25
2022-11-27T13:30:08.207Z,6.57
2022-11-27T13:32:43.071Z,9.40
2022-11-27T13:35:41.947Z,10.10
2022-11-27T13:38:24.716Z,12.38
2022-11-27T13:40:55.487Z,12.10
2022-11-27T13:43:38.990Z,11.73
2022-11-27T13:46:17.474Z,12.45
2022-11-27T13:48:53.323Z,13.65
2022-11-27T13:51:34.150Z,13.40
2022-11-27T13:54:18.820Z,13.35
2022-11-27T13:56:47.323Z,15.65
2022-11-27T13:59:20.499Z,16.05
2022-11-27T14:02:06.438Z,29.08
2022-11-27T14:04:35.172Z,14.48
2022-11-27T14:07:10.789Z,17.00
2022-11-27T14:09:57.873Z,12.45
2022-11-27T14:12:30.837Z,12.15
2022-11-27T14:15:24.269Z,11.27
2022-11-27T14:18:04.118Z,16.10
2022-11-27T14:20:34.585Z,16.23
2022-11-27T14:23:17.265Z,16.70
2022-11-27T14:25:44.481Z,17.67
2022-11-27T14:28:15.704Z,19.08
2022-11-27T14:31:05.240Z,19.52
2022-11-27T14:36:29.617Z,22.02
2022-11-27T14:39:00.013Z,23.60
2022-11-27T14:41:28.568Z,25.48
2022-11-27T14:44:05.144Z,23.13
2022-11-27T14:46:37.230Z,24.98
2022-11-27T14:49:04.586Z,26.17
2022-11-27T14:51:35.107Z,26.40
2022-11-27T14:54:13.205Z,26.88
2022-11-27T14:56:43.136Z,25.08
2022-11-27T14:59:17.454Z,24.08
2022-11-27T15:01:48.502Z,25.42
2022-11-27T15:04:37.489Z,25.05
2022-11-27T15:07:23.701Z,34.38
2022-11-27T15:09:55.475Z,26.08
2022-11-27T15:12:46.671Z,27.50
2022-11-27T15:15:22.116Z,28.20
2022-11-27T15:17:54.679Z,24.50
2022-11-27T15:20:43.873Z,26.83
2022-11-27T15:23:25.374Z,27.48
2022-11-27T15:26:18.833Z,29.60
2022-11-27T15:28:56.499Z,27.27
2022-11-27T15:31:34.967Z,28.08
2022-11-27T15:34:17.203Z,28.67
2022-11-27T15:36:48.945Z,29.85
2022-11-27T15:39:25.198Z,30.17
2022-11-27T15:42:01.634Z,29.65
2022-11-27T15:44:31.950Z,30.77
2022-11-27T15:47:04.515Z,30.15
2022-11-27T15:49:31.798Z,30.77
2022-11-27T15:51:59.127Z,36.13
2022-11-27T15:54:26.319Z,33.67
2022-11-27T15:56:53.643Z,29.80
2022-11-27T15:59:21.202Z,34.38
2022-11-27T16:01:48.885Z,33.03
2022-11-27T16:04:16.593Z,30.20
2022-11-27T16:06:43.916Z,32.95
2022-11-27T16:09:10.983Z,38.08
2022-11-27T16:11:38.576Z,57.75
2022-11-27T16:14:05.821Z,66.22
2022-11-27T16:16:33.183Z,67.97
2022-11-27T16:19:01.388Z,65.43
2022-11-27T16:21:30.146Z,69.82
2022-11-27T16:24:02.845Z,82.72
2022-11-27T16:26:31.069Z,93.60
2022-11-27T16:28:58.710Z,98.05
2022-11-27T16:31:26.775Z,97.15
2022-11-27T16:33:54.377Z,88.50
2022-11-27T16:36:24.509Z,86.82
2022-11-27T16:38:54.163Z,78.95
2022-11-27T16:41:24.763Z,61.88
2022-11-27T16:43:56.557Z,57.35
2022-11-27T16:46:30.076Z,52.42
2022-11-27T16:49:00.138Z,52.20
2022-11-27T16:51:33.326Z,40.83
2022-11-27T16:54:07.062Z,28.60
2022-11-27T16:56:37.839Z,30.58
2022-11-27T16:59:11.142Z,34.75
2022-11-27T17:01:40.892Z,37.17
2022-11-27T17:04:15.559Z,34.75
2022-11-27T17:06:42.816Z,30.60
2022-11-27T17:09:10.206Z,26.33
2022-11-27T17:11:43.361Z,28.42
2022-11-27T17:14:11.244Z,31.73
2022-11-27T17:16:40.910Z,31.75
2022-11-27T17:19:13.190Z,25.38
2022-11-27T17:21:41.721Z,26.23
2022-11-27T17:24:16.151Z,27.77
2022-11-27T17:26:47.146Z,27.50
2022-11-27T17:29:18.851Z,29.65
2022-11-27T17:31:46.215Z,28.38
2022-11-27T17:34:15.579Z,28.83
2022-11-27T17:36:45.282Z,30.92
2022-11-27T17:39:14.838Z,28.23
2022-11-27T17:41:44.502Z,31.00
2022-11-27T17:46:39.459Z,43.35
2022-11-27T17:49:07.285Z,43.90
2022-11-27T17:51:37.143Z,35.95
2022-11-27T17:56:34.087Z,32.17
2022-11-27T17:59:01.743Z,36.80
2022-11-27T18:01:30.493Z,38.13
2022-11-27T18:04:00.724Z,36.25
2022-11-27T18:06:31.329Z,42.10
2022-11-27T18:08:59.646Z,45.63
2022-11-27T18:11:31.458Z,46.00
2022-11-27T18:14:02.802Z,47.67
2022-11-27T18:16:35.500Z,55.55
2022-11-27T18:19:06.909Z,60.90
2022-11-27T18:21:34.864Z,52.15
2022-11-27T18:29:42.280Z,44.65
2022-11-27T18:32:11.878Z,53.70
2022-11-27T18:34:39.989Z,52.40
2022-11-27T18:37:07.761Z,47.92
2022-11-27T18:39:36.252Z,37.55
2022-11-27T18:42:05.311Z,41.33
2022-11-27T18:44:37.259Z,38.70
2022-11-27T18:47:09.606Z,43.50
2022-11-27T18:49:38.916Z,39.17
2022-11-27T18:52:07.224Z,34.95
2022-11-27T18:54:36.584Z,34.83
2022-11-27T18:57:06.355Z,36.40
2022-11-27T18:59:34.582Z,43.80
2022-11-27T19:02:03.535Z,43.53
2022-11-27T19:04:30.727Z,60.05
2022-11-27T19:06:57.824Z,52.20
2022-11-27T19:09:25.376Z,64.32
2022-11-27T19:11:53.365Z,67.80
2022-11-27T19:14:20.535Z,58.15
2022-11-27T19:16:48.083Z,50.53
2022-11-27T19:22:10.866Z,38.22
2022-11-27T19:24:40.047Z,39.80
2022-11-27T19:27:07.485Z,35.97
2022-11-27T19:29:35.138Z,37.05
2022-11-27T19:32:02.456Z,41.53
2022-11-27T19:34:29.683Z,34.05
2022-11-27T19:36:57.641Z,34.10
2022-11-27T19:39:26.558Z,37.28
2022-11-27T19:41:53.893Z,35.95
2022-11-27T19:44:21.196Z,39.15
2022-11-27T19:46:48.457Z,37.50
2022-11-27T19:49:17.315Z,36.15
2022-11-27T19:51:46.721Z,37.75
2022-11-27T19:54:16.326Z,34.92
2022-11-27T19:56:44.024Z,34.95
2022-11-27T19:59:12.655Z,32.05
2022-11-27T20:01:41.246Z,37.23
2022-11-27T20:04:12.395Z,33.67
2022-11-27T20:06:40.514Z,35.50
2022-11-27T20:09:08.494Z,32.33
2022-11-27T20:11:36.540Z,30.83
2022-11-27T20:14:05.638Z,35.20
2022-11-27T20:16:35.511Z,31.23
2022-11-27T20:21:35.884Z,30.52
2022-11-27T20:24:04.174Z,30.92
2022-11-27T20:26:31.377Z,31.73
2022-11-27T20:29:00.479Z,31.70
2022-11-27T20:31:32.383Z,33.50
2022-11-27T20:34:03.807Z,29.73
2022-11-27T20:36:34.776Z,32.72
2022-11-27T20:39:03.199Z,35.53
2022-11-27T20:41:30.814Z,37.47
2022-11-27T20:44:01.180Z,39.30
2022-11-27T20:46:29.810Z,41.83
2022-11-27T20:48:59.120Z,32.25
2022-11-27T20:51:33.166Z,34.90
2022-11-27T20:54:08.720Z,29.02
2022-11-27T20:59:04.612Z,31.15
2022-11-27T21:01:35.109Z,26.70
2022-11-27T21:04:09.729Z,27.38
2022-11-27T21:06:43.484Z,27.90
2022-11-27T21:09:13.158Z,27.27
2022-11-27T21:11:41.657Z,27.65
2022-11-27T21:14:12.668Z,28.42
2022-11-27T21:16:46.339Z,27.23
2022-11-27T21:19:19.501Z,27.55
2022-11-27T21:21:47.057Z,32.65
2022-11-27T21:24:14.892Z,31.88
2022-11-27T21:26:42.884Z,33.30
2022-11-27T21:29:11.983Z,33.17
2022-11-27T21:31:45.146Z,31.35
2022-11-27T21:34:14.743Z,30.85
2022-11-27T21:36:41.918Z,35.35
2022-11-27T21:39:12.282Z,32.78
2022-11-27T21:41:39.789Z,34.17
2022-11-27T21:44:07.603Z,33.20
2022-11-27T21:46:35.712Z,32.88
2022-11-27T21:49:05.682Z,33.88
2022-11-27T21:51:33.073Z,37.60
2022-11-27T21:54:07.947Z,36.55
2022-11-27T21:56:37.847Z,33.15
2022-11-27T21:59:07.239Z,37.42
2022-11-27T22:01:34.760Z,33.25
2022-11-27T22:04:02.117Z,33.65
2022-11-27T22:06:35.402Z,39.00
2022-11-27T22:09:03.738Z,36.95
2022-11-27T22:11:30.931Z,34.95
2022-11-27T22:14:06.122Z,32.75
2022-11-27T22:16:42.944Z,28.50
2022-11-27T22:19:13.571Z,28.40
2022-11-27T22:21:41.769Z,28.40
2022-11-27T22:24:14.851Z,27.67
2022-11-27T22:26:45.573Z,25.80
2022-11-27T22:29:13.746Z,27.05
2022-11-27T22:31:40.863Z,29.35
2022-11-27T22:34:08.009Z,27.23
2022-11-27T22:36:35.372Z,28.65
2022-11-27T22:39:06.557Z,27.85
2022-11-27T22:41:37.019Z,32.67
2022-11-27T22:44:10.306Z,32.35
2022-11-27T22:46:40.633Z,26.02
2022-11-27T22:49:11.712Z,29.45
2022-11-27T22:51:39.427Z,27.40
2022-11-27T22:54:09.720Z,28.90
2022-11-27T22:56:37.239Z,28.88
2022-11-27T22:59:30.983Z,26.67
2022-11-27T23:01:53.841Z,27.20
2022-11-27T23:04:21.351Z,31.70
2022-11-27T23:06:48.952Z,27.60
2022-11-27T23:09:18.290Z,27.25
2022-11-27T23:11:46.187Z,27.70
2022-11-27T23:14:13.414Z,25.60
2022-11-27T23:16:40.980Z,24.00
2022-11-27T23:19:09.410Z,24.85
2022-11-27T23:21:38.102Z,25.85
2022-11-27T23:24:07.424Z,22.27
2022-11-27T23:26:35.120Z,22.08
2022-11-27T23:29:02.956Z,23.65
2022-11-27T23:31:35.649Z,24.08
2022-11-27T23:34:07.456Z,24.30
2022-11-27T23:36:35.516Z,23.02
2022-11-27T23:39:05.300Z,21.95
2022-11-27T23:41:32.933Z,21.45
2022-11-27T23:44:00.881Z,18.90
2022-11-27T23:46:29.621Z,19.63
2022-11-27T23:48:59.513Z,19.13
2022-11-27T23:51:30.272Z,21.02
2022-11-27T23:53:58.728Z,20.70
2022-11-27T23:56:31.428Z,18.60
2022-11-27T23:58:59.514Z,20.45
